Time;durP1;ratioP1;P1;durP2;ratioP2;P2;SDS_P1;SDS_P2;PMS_P1;PMS_P2;Temp;Humidity;BMP_temperature;BMP_pressure;BME280_temperature;BME280_humidity;BME280_pressure;Samples;Min_cycle;Max_cycle;Signal;HPM_P1;HPM_P2
2022/05/22 00:00:13;;;;;;;14.70;6.72;;;10.50;99.90;;;;;;4970418;28;20081;-41
2022/05/22 00:02:40;;;;;;;17.65;6.40;;;10.50;99.90;;;;;;4972676;28;20122;-41
2022/05/22 00:05:07;;;;;;;17.75;6.65;;;10.60;99.90;;;;;;4973560;28;20066;-41
2022/05/22 00:07:33;;;;;;;15.50;6.10;;;10.40;99.90;;;;;;4963840;28;20046;-41
2022/05/22 00:09:59;;;;;;;18.15;6.70;;;10.40;99.90;;;;;;4991495;28;20050;-41
2022/05/22 00:12:25;;;;;;;15.27;6.95;;;10.40;99.90;;;;;;5006857;28;20508;-41
2022/05/22 00:14:50;;;;;;;16.98;6.47;;;10.50;99.90;;;;;;5012305;28;20042;-41
2022/05/22 00:17:16;;;;;;;14.88;6.63;;;10.40;99.90;;;;;;4980787;28;20046;-41
2022/05/22 00:19:42;;;;;;;16.77;6.95;;;10.40;99.90;;;;;;4991801;28;20100;-41
2022/05/22 00:22:08;;;;;;;14.85;6.40;;;10.30;99.90;;;;;;4991999;28;20134;-42
2022/05/22 00:24:34;;;;;;;14.98;6.10;;;10.30;99.90;;;;;;4992675;28;20061;-41
2022/05/22 00:27:02;;;;;;;14.15;6.45;;;10.30;99.90;;;;;;4976535;28;20046;-41
2022/05/22 00:29:28;;;;;;;18.92;7.03;;;10.30;99.90;;;;;;4982782;28;20081;-41
2022/05/22 00:31:54;;;;;;;15.35;6.50;;;10.20;99.90;;;;;;4976070;28;20576;-41
2022/05/22 00:34:20;;;;;;;14.55;6.28;;;10.40;99.90;;;;;;4982739;28;20047;-41
2022/05/22 00:36:46;;;;;;;14.48;6.63;;;10.30;99.90;;;;;;4958109;28;20054;-41
2022/05/22 00:39:11;;;;;;;19.98;6.82;;;10.30;99.90;;;;;;4979937;28;20560;-41
2022/05/22 00:41:38;;;;;;;16.27;7.25;;;10.20;99.90;;;;;;4967387;28;20564;-41
2022/05/22 00:44:05;;;;;;;15.30;6.35;;;10.30;99.90;;;;;;5004179;28;20068;-41
2022/05/22 00:46:33;;;;;;;15.95;7.20;;;10.20;99.90;;;;;;4998308;28;20077;-42
2022/05/22 00:49:08;;;;;;;10.88;6.45;;;10.10;99.90;;;;;;5008868;28;20528;-41
2022/05/22 00:51:44;;;;;;;16.30;7.32;;;10.10;99.90;;;;;;5004911;28;20105;-41
2022/05/22 00:54:24;;;;;;;15.02;7.10;;;10.10;99.90;;;;;;5002380;28;20634;-41
2022/05/22 00:57:01;;;;;;;19.85;6.70;;;10.00;99.90;;;;;;4975904;28;20438;-41
2022/05/22 00:59:32;;;;;;;18.73;6.63;;;10.10;99.90;;;;;;4990453;28;20516;-41
2022/05/22 01:01:59;;;;;;;21.35;7.60;;;10.00;99.90;;;;;;4991894;28;20054;-41
2022/05/22 01:04:28;;;;;;;15.90;6.85;;;10.00;99.90;;;;;;4973111;28;20066;-42
2022/05/22 01:06:55;;;;;;;15.48;6.63;;;10.00;99.90;;;;;;4956124;28;20784;-41
2022/05/22 01:09:21;;;;;;;13.27;6.38;;;10.00;99.90;;;;;;4993448;28;20042;-41
2022/05/22 01:11:52;;;;;;;14.82;6.72;;;10.00;99.90;;;;;;4990063;28;20053;-42
2022/05/22 01:14:22;;;;;;;13.68;7.20;;;9.90;99.90;;;;;;4990395;28;20043;-42
2022/05/22 01:16:50;;;;;;;16.17;7.28;;;10.00;99.90;;;;;;4983206;28;20042;-42
2022/05/22 01:19:21;;;;;;;14.32;7.20;;;9.90;99.90;;;;;;4989510;28;20073;-42
2022/05/22 01:21:54;;;;;;;15.18;7.18;;;9.90;99.90;;;;;;4990630;28;20445;-42
2022/05/22 01:24:20;;;;;;;16.60;6.45;;;9.90;99.90;;;;;;4989995;28;20054;-42
2022/05/22 01:26:47;;;;;;;16.25;6.60;;;10.00;99.90;;;;;;4974875;28;20112;-42
2022/05/22 01:29:12;;;;;;;15.45;6.85;;;9.80;99.90;;;;;;4988064;28;20495;-42
2022/05/22 01:31:38;;;;;;;12.73;6.33;;;9.80;99.90;;;;;;4990404;28;20054;-41
2022/05/22 01:34:04;;;;;;;17.33;7.10;;;9.80;99.90;;;;;;4988850;28;20395;-41
2022/05/22 01:36:30;;;;;;;13.80;6.97;;;9.90;99.90;;;;;;4977653;28;20042;-42
2022/05/22 01:38:56;;;;;;;16.38;6.57;;;9.70;99.90;;;;;;4993214;28;20052;-41
2022/05/22 01:41:21;;;;;;;13.43;6.65;;;9.70;99.90;;;;;;4988954;28;20398;-41
2022/05/22 01:43:47;;;;;;;15.30;6.33;;;9.70;99.90;;;;;;4987133;28;20140;-41
2022/05/22 01:46:13;;;;;;;15.53;6.80;;;9.70;99.90;;;;;;4979051;28;20082;-41
2022/05/22 01:48:38;;;;;;;13.73;6.50;;;9.60;99.90;;;;;;4983156;28;20065;-41
2022/05/22 01:51:05;;;;;;;12.80;7.17;;;9.60;99.90;;;;;;4990062;28;20117;-42
2022/05/22 01:53:31;;;;;;;11.93;6.03;;;9.70;99.90;;;;;;4990807;28;20414;-41
2022/05/22 01:55:58;;;;;;;12.00;5.87;;;9.60;99.90;;;;;;4996430;28;20055;-41
2022/05/22 01:58:24;;;;;;;12.80;7.00;;;9.60;99.90;;;;;;4973482;28;20047;-41
2022/05/22 02:00:50;;;;;;;10.10;5.97;;;9.60;99.90;;;;;;4990041;28;20121;-41
2022/05/22 02:03:15;;;;;;;9.63;5.83;;;9.60;99.90;;;;;;4975592;28;20049;-41
2022/05/22 02:05:43;;;;;;;12.97;6.17;;;9.50;99.90;;;;;;4953002;28;1082812;-41
2022/05/22 02:08:19;;;;;;;11.00;6.00;;;9.50;99.90;;;;;;4974383;28;20053;-41
2022/05/22 02:10:46;;;;;;;14.77;6.50;;;9.50;99.90;;;;;;4988240;28;20100;-41
2022/05/22 02:13:16;;;;;;;14.77;6.03;;;9.50;99.90;;;;;;4999329;28;20048;-41
2022/05/22 02:15:44;;;;;;;8.40;5.40;;;9.40;99.90;;;;;;5007206;28;20080;-41
2022/05/22 02:18:09;;;;;;;12.43;5.70;;;9.50;99.90;;;;;;4975409;28;20082;-41
2022/05/22 02:20:35;;;;;;;8.52;5.30;;;9.40;99.90;;;;;;4988966;28;20078;-41
2022/05/22 02:23:01;;;;;;;11.70;5.03;;;9.40;99.90;;;;;;4988954;28;20465;-41
2022/05/22 02:25:30;;;;;;;8.18;5.47;;;9.40;99.90;;;;;;4990059;28;20046;-41
2022/05/22 02:27:56;;;;;;;12.60;6.50;;;9.40;99.90;;;;;;4973808;28;20054;-41
2022/05/22 02:30:26;;;;;;;14.23;6.35;;;9.40;99.90;;;;;;4990327;28;20617;-41
2022/05/22 02:32:52;;;;;;;10.43;5.95;;;9.40;99.90;;;;;;4988833;28;20387;-41
2022/05/22 02:35:18;;;;;;;18.42;7.00;;;9.40;99.90;;;;;;4988955;28;20053;-41
2022/05/22 02:37:49;;;;;;;12.00;7.07;;;9.30;99.90;;;;;;4974793;28;20050;-41
2022/05/22 02:40:17;;;;;;;9.68;5.65;;;9.30;99.90;;;;;;4989620;28;20054;-41
2022/05/22 02:42:46;;;;;;;15.60;7.27;;;9.30;99.90;;;;;;4988020;28;20049;-41
2022/05/22 02:45:13;;;;;;;11.63;7.00;;;9.30;99.90;;;;;;4989831;28;20066;-41
2022/05/22 02:47:39;;;;;;;16.17;8.03;;;9.20;99.90;;;;;;4974026;28;20038;-42
2022/05/22 02:50:06;;;;;;;14.25;7.55;;;9.20;99.90;;;;;;4989314;28;20560;-41
2022/05/22 02:52:32;;;;;;;12.87;7.13;;;9.20;99.90;;;;;;4988806;28;20058;-41
2022/05/22 02:54:58;;;;;;;10.57;6.17;;;9.30;99.90;;;;;;4989670;28;20050;-41
2022/05/22 02:57:25;;;;;;;12.13;6.47;;;9.20;99.90;;;;;;4974063;28;20057;-41
2022/05/22 02:59:52;;;;;;;15.20;7.93;;;9.10;99.90;;;;;;4988450;28;20042;-41
2022/05/22 03:02:18;;;;;;;10.17;6.03;;;9.10;99.90;;;;;;4986967;28;20096;-41
2022/05/22 03:04:44;;;;;;;15.60;7.13;;;9.10;99.90;;;;;;4989081;28;20058;-41
2022/05/22 03:07:11;;;;;;;11.10;6.57;;;9.10;99.90;;;;;;4973999;28;20486;-42
2022/05/22 03:09:39;;;;;;;14.03;7.03;;;9.20;99.90;;;;;;4987949;28;20046;-41
2022/05/22 03:12:25;;;;;;;16.47;7.03;;;9.10;99.90;;;;;;4987402;28;20050;-42
2022/05/22 03:14:57;;;;;;;10.97;6.00;;;9.10;99.90;;;;;;4964763;28;20050;-41
2022/05/22 03:17:23;;;;;;;;;;;9.00;99.90;;;;;;4960863;28;20047;-41
2022/05/22 03:19:48;;;;;;;14.67;6.00;;;9.00;99.90;;;;;;4989230;28;19930;-41
2022/05/22 03:22:14;;;;;;;12.93;5.20;;;9.00;99.90;;;;;;4986782;28;20448;-41
2022/05/22 03:24:40;;;;;;;15.57;7.43;;;9.00;99.90;;;;;;4990328;28;20081;-42
2022/05/22 03:27:10;;;;;;;13.93;7.20;;;8.90;99.90;;;;;;4972027;28;20525;-42
2022/05/22 03:29:37;;;;;;;15.57;7.47;;;8.90;99.90;;;;;;4987768;28;20101;-41
2022/05/22 03:32:03;;;;;;;14.13;7.07;;;8.90;99.90;;;;;;4989189;28;20050;-41
2022/05/22 03:34:29;;;;;;;12.43;6.53;;;8.90;99.90;;;;;;4987620;28;20054;-41
2022/05/22 03:36:55;;;;;;;12.43;6.13;;;8.90;99.90;;;;;;4973986;28;20038;-41
2022/05/22 03:39:21;;;;;;;18.57;8.03;;;8.90;99.90;;;;;;4997422;28;20046;-41
2022/05/22 03:41:47;;;;;;;13.77;7.77;;;8.90;99.90;;;;;;4983393;28;20058;-41
2022/05/22 03:44:13;;;;;;;16.17;8.10;;;8.80;99.90;;;;;;4987741;28;20054;-41
2022/05/22 03:46:39;;;;;;;15.30;7.43;;;8.90;99.90;;;;;;4975301;28;20057;-41
2022/05/22 03:49:05;;;;;;;15.97;7.77;;;8.80;99.90;;;;;;4985025;28;20054;-41
2022/05/22 03:51:31;;;;;;;16.07;6.83;;;8.80;99.90;;;;;;4989272;28;20070;-41
2022/05/22 03:53:58;;;;;;;20.63;7.70;;;8.90;99.90;;;;;;4993675;28;20042;-41
2022/05/22 03:56:24;;;;;;;15.60;7.53;;;8.80;99.90;;;;;;4978889;28;20480;-41
2022/05/22 03:58:50;;;;;;;17.77;7.70;;;8.80;99.90;;;;;;4970614;28;20074;-41
2022/05/22 04:01:15;;;;;;;14.37;7.40;;;8.90;99.90;;;;;;4969250;28;20133;-41
2022/05/22 04:03:41;;;;;;;19.83;7.67;;;8.90;99.90;;;;;;4981459;28;20038;-41
2022/05/22 04:06:10;;;;;;;17.77;7.80;;;8.90;99.90;;;;;;4982458;28;20094;-41
2022/05/22 04:08:36;;;;;;;16.53;8.50;;;9.10;99.90;;;;;;4982376;28;20127;-41
2022/05/22 04:11:07;;;;;;;13.17;7.00;;;8.90;99.90;;;;;;4991152;28;20121;-41
2022/05/22 04:13:33;;;;;;;14.83;7.93;;;8.90;99.90;;;;;;5000022;28;20046;-41
2022/05/22 04:15:59;;;;;;;15.07;7.30;;;8.90;99.90;;;;;;5002861;28;20086;-42
2022/05/22 04:18:25;;;;;;;10.97;5.73;;;8.90;99.90;;;;;;4972798;28;20117;-41
2022/05/22 04:20:51;;;;;;;9.83;5.20;;;8.90;99.90;;;;;;4988579;28;20116;-41
2022/05/22 04:26:01;;;;;;;10.57;5.85;;;8.90;99.90;;;;;;4976947;28;20182;-41
2022/05/22 04:28:29;;;;;;;11.27;6.63;;;8.90;99.90;;;;;;4972233;28;20142;-41
2022/05/22 04:30:55;;;;;;;39.80;27.03;;;9.00;99.90;;;;;;4988230;28;20544;-41
2022/05/22 04:33:20;;;;;;;35.77;22.97;;;8.90;99.90;;;;;;4986590;28;20050;-41
2022/05/22 04:35:47;;;;;;;23.80;16.07;;;9.00;99.90;;;;;;4988464;28;20096;-41
2022/05/22 04:38:13;;;;;;;18.57;10.50;;;9.00;99.90;;;;;;4973151;28;20513;-41
2022/05/22 04:40:40;;;;;;;43.73;24.07;;;9.00;99.90;;;;;;4984617;28;20051;-41
2022/05/22 04:43:06;;;;;;;58.13;35.47;;;9.00;99.90;;;;;;4977072;28;20433;-43
2022/05/22 04:45:32;;;;;;;58.17;35.00;;;9.10;99.90;;;;;;4986278;28;20069;-42
2022/05/22 04:47:59;;;;;;;48.13;26.97;;;9.10;99.90;;;;;;4966656;28;20042;-41
2022/05/22 04:50:25;;;;;;;34.17;20.37;;;9.20;99.90;;;;;;4984679;28;20050;-42
2022/05/22 04:52:51;;;;;;;25.27;14.20;;;9.10;99.90;;;;;;4974232;28;20441;-42
2022/05/22 04:55:17;;;;;;;19.33;9.33;;;9.20;99.90;;;;;;4973904;28;20035;-42
2022/05/22 04:57:43;;;;;;;17.17;7.50;;;9.20;99.90;;;;;;4959420;28;20042;-42
2022/05/22 05:00:11;;;;;;;14.33;7.10;;;9.30;99.90;;;;;;4974197;28;20050;-42
2022/05/22 05:02:37;;;;;;;18.97;10.57;;;9.30;99.90;;;;;;4988137;28;20049;-42
2022/05/22 05:05:05;;;;;;;13.83;8.00;;;9.40;99.90;;;;;;4975149;28;20522;-41
2022/05/22 05:07:32;;;;;;;16.43;9.03;;;9.50;99.90;;;;;;4962260;28;20042;-43
2022/05/22 05:09:58;;;;;;;16.27;7.53;;;9.50;99.90;;;;;;4973279;28;20039;-42
2022/05/22 05:12:23;;;;;;;14.33;8.70;;;9.60;99.90;;;;;;4984472;28;20481;-42
2022/05/22 05:14:49;;;;;;;18.43;9.50;;;9.70;99.90;;;;;;4973621;28;20070;-42
2022/05/22 05:17:18;;;;;;;16.00;8.40;;;9.70;99.90;;;;;;4962001;28;20050;-42
2022/05/22 05:19:44;;;;;;;21.00;8.53;;;9.80;99.90;;;;;;4977419;28;20464;-42
2022/05/22 05:22:10;;;;;;;18.67;9.30;;;9.90;99.90;;;;;;4967476;28;20100;-42
2022/05/22 05:24:35;;;;;;;17.67;8.25;;;10.00;99.90;;;;;;4978248;28;20047;-42
2022/05/22 05:27:01;;;;;;;16.23;8.32;;;10.10;99.90;;;;;;4960502;28;20051;-42
2022/05/22 05:29:27;;;;;;;18.77;8.65;;;10.20;99.90;;;;;;4974537;28;20057;-42
2022/05/22 05:31:53;;;;;;;22.20;9.70;;;10.40;99.90;;;;;;4972908;28;20489;-42
2022/05/22 05:34:18;;;;;;;14.95;8.63;;;10.50;99.90;;;;;;4972583;28;20051;-42
2022/05/22 05:36:45;;;;;;;17.65;8.88;;;10.60;99.90;;;;;;4959974;28;20038;-42
2022/05/22 05:39:11;;;;;;;18.45;8.77;;;10.70;99.90;;;;;;4973077;28;20051;-42
2022/05/22 05:41:37;;;;;;;21.05;9.20;;;10.90;99.90;;;;;;4972311;28;20038;-42
2022/05/22 05:44:06;;;;;;;21.85;10.07;;;11.00;99.90;;;;;;4975457;28;20422;-42
2022/05/22 05:46:36;;;;;;;27.60;10.63;;;11.10;99.90;;;;;;4961573;28;20155;-42
2022/05/22 05:49:03;;;;;;;28.42;10.68;;;11.20;99.90;;;;;;4968871;28;20130;-42
2022/05/22 05:51:30;;;;;;;27.23;11.13;;;11.30;99.90;;;;;;4971047;28;20505;-42
2022/05/22 05:53:55;;;;;;;22.00;10.52;;;11.50;99.90;;;;;;4971354;28;20046;-43
2022/05/22 05:56:22;;;;;;;25.05;11.00;;;11.60;99.90;;;;;;4959880;28;20428;-42
2022/05/22 05:58:48;;;;;;;25.73;11.13;;;11.80;99.90;;;;;;4964984;28;20081;-42
2022/05/22 06:01:16;;;;;;;26.85;11.15;;;11.90;99.90;;;;;;4972080;28;20050;-42
2022/05/22 06:03:42;;;;;;;29.67;12.10;;;11.90;99.90;;;;;;4971039;28;20046;-42
2022/05/22 06:06:10;;;;;;;23.50;11.40;;;12.10;99.90;;;;;;4968316;28;20148;-43
2022/05/22 06:08:36;;;;;;;23.92;11.48;;;12.20;99.90;;;;;;4967776;28;20097;-42
2022/05/22 06:11:02;;;;;;;25.85;11.10;;;12.30;99.90;;;;;;4971964;28;20043;-42
2022/05/22 06:13:28;;;;;;;24.38;12.13;;;12.40;99.90;;;;;;4971321;28;20154;-43
2022/05/22 06:15:54;;;;;;;22.98;11.02;;;12.50;99.90;;;;;;4971707;28;20145;-42
2022/05/22 06:18:20;;;;;;;26.98;10.80;;;12.60;99.90;;;;;;4953039;28;20065;-42
2022/05/22 06:20:47;;;;;;;26.08;10.95;;;12.70;99.90;;;;;;4970153;28;20584;-43
2022/05/22 06:23:13;;;;;;;24.80;9.77;;;12.80;99.90;;;;;;4971746;28;20529;-43
2022/05/22 06:25:44;;;;;;;24.65;10.25;;;13.00;99.90;;;;;;4956678;28;20050;-42
2022/05/22 06:28:11;;;;;;;;;;;13.10;99.90;;;;;;4955325;28;20054;-43
2022/05/22 06:30:36;;;;;;;26.40;9.45;;;13.20;99.90;;;;;;4983269;28;20285;-43
2022/05/22 06:33:10;;;;;;;25.35;9.40;;;13.30;99.90;;;;;;4969346;28;20057;-43
2022/05/22 06:35:39;;;;;;;21.58;8.88;;;13.40;99.90;;;;;;4971341;28;20513;-43
2022/05/22 06:38:06;;;;;;;29.67;9.20;;;13.50;99.90;;;;;;4953727;28;20153;-43
2022/05/22 06:40:32;;;;;;;21.10;8.30;;;13.60;99.90;;;;;;4970632;28;20069;-43
2022/05/22 06:43:01;;;;;;;22.45;8.00;;;13.60;99.90;;;;;;4968791;28;20070;-43
2022/05/22 06:45:27;;;;;;;23.83;8.50;;;13.70;99.90;;;;;;4969882;28;20445;-43
2022/05/22 06:47:53;;;;;;;21.40;8.43;;;13.80;99.90;;;;;;4939410;28;20126;-43
2022/05/22 06:50:22;;;;;;;20.67;8.25;;;13.90;99.90;;;;;;4969301;28;20130;-43
2022/05/22 06:52:47;;;;;;;19.35;7.80;;;14.00;99.90;;;;;;4968494;28;20099;-43
2022/05/22 06:55:13;;;;;;;23.15;7.53;;;14.10;99.90;;;;;;4969387;28;20433;-43
2022/05/22 06:57:40;;;;;;;19.83;7.28;;;14.10;99.90;;;;;;4952993;28;20781;-43
2022/05/22 07:00:09;;;;;;;16.85;6.53;;;14.20;99.90;;;;;;4975669;28;20469;-43
2022/05/22 07:02:36;;;;;;;19.27;6.80;;;14.20;99.90;;;;;;4975943;28;20118;-44
2022/05/22 07:05:03;;;;;;;16.02;6.82;;;14.20;99.90;;;;;;4971300;28;20729;-44
2022/05/22 07:07:29;;;;;;;12.98;5.85;;;14.30;99.90;;;;;;4959543;28;20129;-44
2022/05/22 07:09:55;;;;;;;13.90;5.60;;;14.40;99.90;;;;;;4987128;28;20482;-41
2022/05/22 07:12:22;;;;;;;16.30;6.30;;;14.40;99.90;;;;;;4980052;28;20043;-41
2022/05/22 07:14:48;;;;;;;18.48;6.43;;;14.50;99.90;;;;;;4989465;28;20034;-41
2022/05/22 07:17:15;;;;;;;13.35;5.50;;;14.50;99.90;;;;;;4966496;28;20109;-42
2022/05/22 07:19:43;;;;;;;14.98;5.40;;;14.60;99.90;;;;;;4987334;28;20046;-41
2022/05/22 07:22:08;;;;;;;14.20;5.65;;;14.60;99.90;;;;;;4981518;28;20677;-41
2022/05/22 07:24:34;;;;;;;16.92;5.72;;;14.70;99.90;;;;;;4984730;28;20158;-41
2022/05/22 07:27:00;;;;;;;16.42;5.03;;;14.60;99.90;;;;;;4962894;28;20046;-41
2022/05/22 07:29:26;;;;;;;14.93;5.28;;;14.80;99.90;;;;;;4985969;28;20047;-41
2022/05/22 07:31:54;;;;;;;12.80;4.55;;;14.80;99.90;;;;;;4982720;28;20122;-41
2022/05/22 07:34:20;;;;;;;13.98;4.43;;;14.90;99.90;;;;;;4983909;28;20073;-41
2022/05/22 07:36:46;;;;;;;12.65;4.65;;;14.90;99.90;;;;;;4967702;28;20054;-41
2022/05/22 07:39:12;;;;;;;13.00;4.32;;;14.90;99.90;;;;;;4988584;28;20591;-41
2022/05/22 07:41:38;;;;;;;17.50;4.43;;;15.00;99.90;;;;;;4984403;28;20047;-41
2022/05/22 07:44:04;;;;;;;16.05;6.13;;;15.10;99.90;;;;;;4984394;28;20054;-41
2022/05/22 07:46:29;;;;;;;12.13;4.72;;;15.10;99.90;;;;;;4974899;28;20489;-41
2022/05/22 07:48:55;;;;;;;15.43;5.38;;;15.10;99.90;;;;;;4978307;28;20049;-41
2022/05/22 07:51:21;;;;;;;8.77;3.75;;;15.20;99.90;;;;;;4988782;28;20051;-41
2022/05/22 07:53:47;;;;;;;16.80;4.75;;;15.20;99.90;;;;;;4988866;28;20057;-41
2022/05/22 07:56:13;;;;;;;9.25;3.50;;;15.20;99.90;;;;;;4969658;28;20035;-43
2022/05/22 07:58:39;;;;;;;10.05;3.33;;;15.30;99.90;;;;;;4975458;28;20046;-41
2022/05/22 08:01:05;;;;;;;12.27;3.33;;;15.30;99.90;;;;;;4985150;28;20045;-41
2022/05/22 08:03:32;;;;;;;13.93;3.53;;;15.30;99.90;;;;;;4981604;28;20043;-43
2022/05/22 08:05:58;;;;;;;9.30;3.03;;;15.40;99.90;;;;;;4982334;28;20129;-43
2022/05/22 08:08:25;;;;;;;7.38;2.58;;;15.40;99.90;;;;;;4969847;28;20521;-43
2022/05/22 08:10:53;;;;;;;12.95;3.17;;;15.40;99.90;;;;;;4985114;28;20121;-43
2022/05/22 08:13:19;;;;;;;7.10;2.30;;;15.50;99.90;;;;;;4984079;28;20046;-43
2022/05/22 08:15:45;;;;;;;7.07;1.92;;;15.50;99.90;;;;;;4984703;28;20141;-43
2022/05/22 08:18:11;;;;;;;8.27;1.80;;;15.50;99.90;;;;;;4966432;28;20122;-43
2022/05/22 08:20:38;;;;;;;8.52;2.13;;;15.60;99.90;;;;;;4984845;28;20050;-43
2022/05/22 08:23:10;;;;;;;5.43;1.73;;;15.50;99.90;;;;;;4988087;28;20445;-43
2022/05/22 08:25:36;;;;;;;8.43;1.73;;;15.60;99.90;;;;;;4985485;28;20097;-43
2022/05/22 08:28:04;;;;;;;8.45;2.15;;;15.60;99.90;;;;;;4966645;28;20429;-42
2022/05/22 08:30:31;;;;;;;7.40;2.15;;;15.60;99.90;;;;;;4978923;28;20121;-42
2022/05/22 08:32:56;;;;;;;7.95;2.80;;;15.60;99.90;;;;;;4987213;28;20541;-42
2022/05/22 08:35:29;;;;;;;6.07;2.28;;;15.60;99.90;;;;;;4937320;28;20046;-42
2022/05/22 08:37:55;;;;;;;10.45;2.15;;;15.60;99.90;;;;;;4974248;28;20100;-42
2022/05/22 08:40:23;;;;;;;8.57;2.35;;;15.60;99.90;;;;;;4990105;28;20046;-42
2022/05/22 08:42:52;;;;;;;10.93;2.88;;;15.70;99.90;;;;;;4986053;28;20805;-42
2022/05/22 08:45:32;;;;;;;11.80;3.83;;;15.70;99.90;;;;;;4987669;28;20046;-42
2022/05/22 08:48:12;;;;;;;9.25;2.30;;;15.70;99.90;;;;;;4970953;28;20512;-42
2022/05/22 08:50:38;;;;;;;13.02;2.65;;;15.70;99.90;;;;;;4990846;28;20038;-42
2022/05/22 08:53:17;;;;;;;9.90;3.33;;;15.70;99.90;;;;;;4987618;28;20038;-41
2022/05/22 08:58:56;;;;;;;4.53;1.60;;;15.80;99.90;;;;;;4997771;28;20046;-42
2022/05/22 09:01:32;;;;;;;7.85;2.17;;;15.80;99.90;;;;;;4982256;28;20764;-42
2022/05/22 09:04:11;;;;;;;8.63;2.17;;;15.80;99.90;;;;;;4982081;28;20834;-41
2022/05/22 09:06:42;;;;;;;7.05;2.30;;;15.90;99.90;;;;;;4971420;28;20771;-41
2022/05/22 09:09:08;;;;;;;7.10;2.15;;;15.90;99.90;;;;;;4988101;28;20050;-42
2022/05/22 09:11:56;;;;;;;7.93;2.53;;;15.90;99.90;;;;;;4989548;28;20046;-42
2022/05/22 09:14:47;;;;;;;8.55;2.42;;;16.00;99.90;;;;;;5018433;28;20158;-42
2022/05/22 09:17:18;;;;;;;8.73;2.13;;;16.10;99.90;;;;;;4958259;28;20109;-42
2022/05/22 09:20:06;;;;;;;13.43;2.47;;;16.10;99.90;;;;;;4987950;28;20046;-42
2022/05/22 09:22:39;;;;;;;7.55;2.38;;;16.00;99.90;;;;;;4988543;28;20038;-42
2022/05/22 09:25:38;;;;;;;6.60;2.50;;;16.20;99.90;;;;;;4988369;28;20058;-42
2022/05/22 09:28:19;;;;;;;7.40;2.55;;;16.30;99.90;;;;;;4968674;28;20136;-42
2022/05/22 09:30:54;;;;;;;9.85;3.22;;;16.30;99.90;;;;;;4987677;28;20108;-42
2022/05/22 09:33:39;;;;;;;13.30;3.15;;;16.40;99.90;;;;;;4985359;28;20058;-42
2022/05/22 09:36:11;;;;;;;10.70;3.10;;;16.50;99.90;;;;;;4984480;28;20728;-42
2022/05/22 09:38:36;;;;;;;11.82;3.20;;;16.50;99.90;;;;;;4965667;28;20093;-42
2022/05/22 09:41:16;;;;;;;11.20;3.42;;;16.50;99.90;;;;;;4984375;28;20120;-42
2022/05/22 09:44:00;;;;;;;8.57;3.17;;;16.60;99.90;;;;;;4987610;28;20077;-42
2022/05/22 09:47:02;;;;;;;11.38;3.10;;;16.70;99.90;;;;;;4990669;28;20504;-42
2022/05/22 09:49:59;;;;;;;10.02;3.20;;;16.70;99.90;;;;;;4986474;28;20424;-42
2022/05/22 09:52:48;;;;;;;7.00;2.60;;;16.80;99.90;;;;;;4986666;28;20046;-42
2022/05/22 09:55:20;;;;;;;8.23;3.17;;;16.90;99.90;;;;;;4988513;28;20648;-42
2022/05/22 09:58:18;;;;;;;10.43;3.08;;;16.90;99.90;;;;;;5003929;28;20054;-42
2022/05/22 10:01:10;;;;;;;14.30;3.20;;;17.00;99.90;;;;;;4987466;28;20058;-42
2022/05/22 10:03:47;;;;;;;9.73;3.13;;;17.00;99.90;;;;;;4986422;28;20052;-41
2022/05/22 10:06:32;;;;;;;10.38;3.55;;;17.10;99.90;;;;;;4978162;28;20060;-42
2022/05/22 10:09:19;;;;;;;9.80;2.88;;;17.20;99.90;;;;;;4986056;28;20042;-42
2022/05/22 10:12:09;;;;;;;11.38;3.00;;;17.30;99.90;;;;;;4985768;28;20145;-42
2022/05/22 10:15:03;;;;;;;7.32;2.50;;;17.40;99.90;;;;;;4987000;28;20539;-42
2022/05/22 10:17:28;;;;;;;8.50;2.50;;;17.40;99.90;;;;;;4972448;28;20129;-42
2022/05/22 10:20:14;;;;;;;10.88;2.90;;;17.50;99.90;;;;;;4987481;28;20141;-42
2022/05/22 10:22:54;;;;;;;11.07;3.28;;;17.60;99.90;;;;;;4987461;28;20068;-42
2022/05/22 10:25:51;;;;;;;7.78;2.50;;;17.80;99.90;;;;;;4987583;28;20793;-42
2022/05/22 10:28:18;;;;;;;6.25;2.17;;;17.70;99.90;;;;;;4971888;28;20054;-42
2022/05/22 10:30:58;;;;;;;10.35;2.50;;;17.80;99.90;;;;;;4988050;28;20105;-41
2022/05/22 10:33:42;;;;;;;7.75;2.35;;;17.80;99.90;;;;;;4987022;28;20042;-41
2022/05/22 10:36:15;;;;;;;8.30;2.83;;;17.90;99.90;;;;;;4982057;28;20105;-44
2022/05/22 10:38:54;;;;;;;8.25;2.10;;;17.90;99.90;;;;;;4982070;28;20096;-43
2022/05/22 10:44:16;;;;;;;12.48;2.70;;;17.90;99.90;;;;;;4985463;28;20105;-42
2022/05/22 10:46:51;;;;;;;7.57;2.42;;;18.10;99.90;;;;;;4973389;28;20050;-42
2022/05/22 10:49:19;;;;;;;8.55;2.30;;;18.20;99.90;;;;;;4971753;28;20645;-43
2022/05/22 10:51:56;;;;;;;9.77;2.83;;;18.20;99.90;;;;;;4986330;28;20108;-43
2022/05/22 10:54:27;;;;;;;9.05;2.60;;;18.30;99.90;;;;;;4986034;28;20060;-42
2022/05/22 10:56:53;;;;;;;9.95;2.72;;;18.40;99.90;;;;;;4972641;28;20042;-42
2022/05/22 10:59:22;;;;;;;6.65;2.20;;;18.30;99.90;;;;;;4985477;28;20053;-42
2022/05/22 11:01:58;;;;;;;6.53;2.47;;;18.30;99.90;;;;;;4987729;28;20478;-42
2022/05/22 11:04:37;;;;;;;5.20;1.60;;;18.40;99.90;;;;;;4982611;28;20078;-42
2022/05/22 11:07:04;;;;;;;6.40;2.42;;;18.40;99.90;;;;;;4949594;28;20108;-49
2022/05/22 11:09:46;;;;;;;6.80;2.05;;;18.50;99.90;;;;;;4987076;28;20065;-42
2022/05/22 11:12:27;;;;;;;8.38;2.38;;;18.50;99.90;;;;;;4977087;28;20061;-43
2022/05/22 11:15:05;;;;;;;;;;;18.50;99.90;;;;;;4981930;28;20112;-42
2022/05/22 11:17:31;;;;;;;8.48;2.20;;;18.60;99.90;;;;;;4965251;28;19941;-43
2022/05/22 11:20:08;;;;;;;6.95;2.38;;;18.70;99.90;;;;;;4987655;28;20260;-43
2022/05/22 11:23:03;;;;;;;7.70;2.15;;;18.80;99.90;;;;;;4981436;28;20050;-43
2022/05/22 11:26:09;;;;;;;8.77;2.42;;;18.90;99.90;;;;;;4985505;28;20749;-42
2022/05/22 11:29:12;;;;;;;7.90;2.40;;;19.00;99.90;;;;;;4978949;28;20544;-42
2022/05/22 11:31:53;;;;;;;6.80;2.15;;;19.10;99.90;;;;;;4987358;28;20058;-42
2022/05/22 11:34:28;;;;;;;9.70;2.60;;;19.20;99.90;;;;;;4986076;28;20136;-42
2022/05/22 11:37:08;;;;;;;10.02;2.13;;;19.30;99.90;;;;;;4971941;28;20038;-42
2022/05/22 11:39:58;;;;;;;5.80;2.10;;;19.40;99.90;;;;;;4984848;28;20058;-42
2022/05/22 11:42:31;;;;;;;8.50;2.03;;;19.40;99.90;;;;;;4984088;28;20042;-42
2022/05/22 11:45:09;;;;;;;6.28;2.03;;;19.40;99.90;;;;;;4985445;28;20054;-42
2022/05/22 11:47:34;;;;;;;6.03;1.95;;;19.50;99.90;;;;;;4970694;28;20050;-42
2022/05/22 11:50:42;;;;;;;4.75;1.95;;;19.70;99.90;;;;;;4984667;28;20053;-42
2022/05/22 11:53:45;;;;;;;5.60;1.90;;;19.80;99.90;;;;;;5010870;28;20141;-42
2022/05/22 11:56:38;;;;;;;7.00;2.10;;;19.80;99.90;;;;;;5010336;28;20085;-42
2022/05/22 11:59:11;;;;;;;5.40;1.67;;;19.90;99.90;;;;;;4986680;28;20105;-42
2022/05/22 12:01:41;;;;;;;6.45;1.75;;;20.00;99.90;;;;;;4990444;28;20061;-42
2022/05/22 12:04:18;;;;;;;8.85;1.83;;;20.00;99.90;;;;;;4986862;28;20508;-42
2022/05/22 12:07:21;;;;;;;5.68;1.60;;;20.10;99.90;;;;;;4974803;28;20054;-42
2022/05/22 12:10:01;;;;;;;5.28;1.50;;;20.10;99.90;;;;;;4989276;28;20124;-42
2022/05/22 12:13:01;;;;;;;7.05;1.48;;;20.20;99.90;;;;;;4989332;28;20046;-42
2022/05/22 12:15:31;;;;;;;6.25;1.58;;;20.30;99.90;;;;;;4992131;28;20053;-42
2022/05/22 12:18:04;;;;;;;4.60;1.40;;;20.30;99.90;;;;;;4975088;28;20050;-42
2022/05/22 12:20:45;;;;;;;4.07;1.38;;;20.40;99.90;;;;;;4990423;28;20133;-42
2022/05/22 12:23:21;;;;;;;7.70;1.85;;;20.30;99.90;;;;;;4988797;28;20054;-42
2022/05/22 12:25:52;;;;;;;4.75;1.33;;;20.40;99.90;;;;;;4990748;28;20124;-42
2022/05/22 12:28:36;;;;;;;;;;;20.40;99.90;;;;;;4974074;28;20050;-42
2022/05/22 12:31:07;;;;;;;4.22;1.30;;;20.50;99.90;;;;;;4989314;28;19921;-42
2022/05/22 12:33:35;;;;;;;8.15;1.48;;;20.60;99.90;;;;;;4988971;28;20054;-42
2022/05/22 12:36:03;;;;;;;5.75;1.42;;;20.60;99.90;;;;;;4990380;28;20600;-42
2022/05/22 12:38:28;;;;;;;6.72;1.35;;;20.70;99.90;;;;;;4975197;28;20073;-42
2022/05/22 12:40:58;;;;;;;5.18;1.65;;;20.70;99.90;;;;;;4989225;28;20312;-42
2022/05/22 12:43:25;;;;;;;5.53;1.42;;;20.70;99.90;;;;;;4989106;28;20085;-42
2022/05/22 12:46:00;;;;;;;8.40;1.58;;;20.70;99.90;;;;;;4992799;28;20042;-42
2022/05/22 12:48:32;;;;;;;5.38;1.45;;;20.70;99.90;;;;;;4974205;28;20051;-42
2022/05/22 12:51:19;;;;;;;4.55;1.42;;;20.80;99.90;;;;;;4990176;28;20609;-42
2022/05/22 12:53:48;;;;;;;4.38;1.38;;;20.80;99.90;;;;;;4983970;28;20042;-42
2022/05/22 12:56:28;;;;;;;12.40;6.15;;;20.80;99.90;;;;;;4986203;28;20058;-42
2022/05/22 12:58:59;;;;;;;15.27;9.80;;;20.80;99.90;;;;;;4983661;28;20058;-42
2022/05/22 13:01:27;;;;;;;6.85;2.40;;;20.80;99.90;;;;;;4973541;28;20042;-42
2022/05/22 13:03:57;;;;;;;7.43;1.80;;;20.80;99.90;;;;;;4968147;28;20057;-42
2022/05/22 13:06:30;;;;;;;3.53;1.17;;;20.80;99.90;;;;;;4964941;28;20058;-43
2022/05/22 13:09:04;;;;;;;4.93;1.23;;;20.80;99.90;;;;;;4989784;28;20412;-43